Webster, Iowa
Current Conditions -  °F | °C
As of 3:35 AM on Thursday 23 Oct 2014 (Local Time) from KOOA Reporting Station
Broken Clouds Broken Clouds  
Wind Chill: 50°   Ceiling: 10000
Heat Index: 50°   Visibility: 10mi
Dew Point: 42°   Wind: 0mph
Humidity: 73%   Direction: NA
Pressure: 30.12"   Gusts: NA
Location:  41.44°N, 92.17°W
Report Text: KOOA 230835Z AUTO 00000KT 10SM SCT080 BKN100 10/05 A3012 RMK AO2 T01000054
Loading
Personal Weather Stations






























Interactive Weather Map
Tropical Storm Tracking
New forecast layout! Learn more

10-Day Weather Forecast

Advertisements
Track Severe Weather on mobile